createdAt,value
2023-02-11T00:00:42.586Z,24.33
2023-02-11T00:03:09.968Z,27.77
2023-02-11T00:05:36.678Z,20.23
2023-02-11T00:08:03.435Z,22.27
2023-02-11T00:10:30.261Z,26.65
2023-02-11T00:12:59.040Z,23.92
2023-02-11T00:15:28.753Z,27.60
2023-02-11T00:17:55.496Z,28.98
2023-02-11T00:20:22.217Z,22.88
2023-02-11T00:22:48.997Z,24.83
2023-02-11T00:25:15.707Z,27.05
2023-02-11T00:27:45.547Z,21.80
2023-02-11T00:30:13.112Z,29.38
2023-02-11T00:32:39.842Z,24.67
2023-02-11T00:35:07.017Z,23.88
2023-02-11T00:37:36.402Z,25.35
2023-02-11T00:40:06.714Z,27.98
2023-02-11T00:42:35.517Z,28.42
2023-02-11T00:45:02.754Z,21.63
2023-02-11T00:47:29.654Z,21.52
2023-02-11T00:49:56.365Z,22.05
2023-02-11T00:52:23.035Z,23.50
2023-02-11T00:54:49.705Z,31.48
2023-02-11T00:57:16.439Z,19.30
2023-02-11T00:59:43.430Z,17.52
2023-02-11T01:02:10.162Z,25.75
2023-02-11T01:04:36.961Z,21.45
2023-02-11T01:07:03.792Z,23.77
2023-02-11T01:09:30.476Z,28.73
2023-02-11T01:11:57.492Z,25.42
2023-02-11T01:14:24.202Z,18.10
2023-02-11T01:16:51.358Z,18.85
2023-02-11T01:19:20.155Z,22.10
2023-02-11T01:21:46.871Z,25.75
2023-02-11T01:24:13.664Z,20.50
2023-02-11T01:26:42.541Z,20.73
2023-02-11T01:29:09.458Z,35.25
2023-02-11T01:31:36.452Z,24.27
2023-02-11T01:34:03.517Z,23.77
2023-02-11T01:36:30.346Z,24.90
2023-02-11T01:38:57.097Z,27.38
2023-02-11T01:41:23.830Z,27.25
2023-02-11T01:43:51.041Z,27.60
2023-02-11T01:46:34.475Z,24.38
2023-02-11T01:49:06.151Z,19.60
2023-02-11T01:51:53.088Z,21.02
2023-02-11T01:54:42.331Z,22.20
2023-02-11T01:57:22.244Z,24.17
2023-02-11T02:00:14.388Z,21.30
2023-02-11T02:02:47.566Z,25.88
2023-02-11T02:05:32.415Z,29.65
2023-02-11T02:08:16.064Z,28.10
2023-02-11T02:10:45.888Z,18.15
2023-02-11T02:13:13.142Z,25.38
2023-02-11T02:16:12.436Z,22.42
2023-02-11T02:19:16.732Z,25.25
2023-02-11T02:22:14.271Z,28.35
2023-02-11T02:24:43.905Z,19.15
2023-02-11T02:27:10.685Z,19.58
2023-02-11T02:30:22.030Z,24.65
2023-02-11T02:33:21.826Z,27.45
2023-02-11T02:36:09.181Z,25.40
2023-02-11T02:38:53.842Z,20.23
2023-02-11T02:41:27.213Z,24.77
2023-02-11T02:43:57.137Z,25.25
2023-02-11T02:46:30.349Z,25.73
2023-02-11T02:48:58.045Z,23.45
2023-02-11T02:51:36.096Z,20.52
2023-02-11T02:54:21.356Z,27.65
2023-02-11T02:57:26.539Z,27.30
2023-02-11T03:00:08.210Z,23.67
2023-02-11T03:02:59.148Z,20.33
2023-02-11T03:05:54.061Z,22.17
2023-02-11T03:08:25.220Z,20.98
2023-02-11T03:10:53.956Z,21.65
2023-02-11T03:13:28.911Z,29.15
2023-02-11T03:15:58.309Z,20.13
2023-02-11T03:18:28.764Z,22.15
2023-02-11T03:20:57.532Z,24.50
2023-02-11T03:23:30.725Z,19.58
2023-02-11T03:26:26.448Z,23.00
2023-02-11T03:29:05.296Z,25.63
2023-02-11T03:31:49.641Z,30.00
2023-02-11T03:34:23.440Z,27.45
2023-02-11T03:37:17.025Z,25.33
2023-02-11T03:39:53.581Z,26.83
2023-02-11T03:42:22.166Z,26.13
2023-02-11T03:44:56.432Z,27.05
2023-02-11T03:47:27.334Z,30.60
2023-02-11T03:49:56.713Z,30.02
2023-02-11T03:52:27.308Z,27.90
2023-02-11T03:54:58.061Z,27.52
2023-02-11T03:57:25.893Z,28.95
2023-02-11T03:59:57.794Z,29.92
2023-02-11T04:02:28.983Z,22.05
2023-02-11T04:04:55.731Z,33.95
2023-02-11T04:07:22.437Z,29.33
2023-02-11T04:09:49.200Z,31.48
2023-02-11T04:12:20.188Z,24.05
2023-02-11T04:14:50.109Z,26.10
2023-02-11T04:17:17.638Z,27.30
2023-02-11T04:19:44.629Z,24.55
2023-02-11T04:22:11.429Z,31.98
2023-02-11T04:24:39.344Z,32.00
2023-02-11T04:27:06.098Z,28.25
2023-02-11T04:29:36.141Z,35.63
2023-02-11T04:32:04.696Z,33.55
2023-02-11T04:34:31.846Z,35.30
2023-02-11T04:36:58.732Z,38.25
2023-02-11T04:39:25.638Z,37.83
2023-02-11T04:41:55.193Z,28.58
2023-02-11T04:44:23.231Z,32.38
2023-02-11T04:46:49.985Z,37.00
2023-02-11T04:49:17.099Z,29.08
2023-02-11T04:51:47.582Z,35.97
2023-02-11T04:54:15.757Z,33.17
2023-02-11T04:56:42.462Z,28.63
2023-02-11T04:59:09.204Z,32.15
2023-02-11T05:01:36.033Z,37.05
2023-02-11T05:04:02.883Z,31.40
2023-02-11T05:06:29.649Z,33.47
2023-02-11T05:08:56.444Z,32.95
2023-02-11T05:11:25.385Z,33.00
2023-02-11T05:13:52.423Z,30.50
2023-02-11T05:16:20.710Z,34.50
2023-02-11T05:18:47.569Z,31.40
2023-02-11T05:21:16.645Z,34.78
2023-02-11T05:23:44.150Z,42.13
2023-02-11T05:26:12.095Z,43.90
2023-02-11T05:28:39.116Z,36.83
2023-02-11T05:31:11.058Z,36.47
2023-02-11T05:33:38.293Z,42.30
2023-02-11T05:36:08.186Z,34.47
2023-02-11T05:38:37.753Z,34.05
2023-02-11T05:41:07.046Z,38.60
2023-02-11T05:43:35.264Z,37.00
2023-02-11T05:46:02.641Z,36.58
2023-02-11T05:48:29.993Z,52.95
2023-02-11T05:50:56.950Z,38.55
2023-02-11T05:53:23.718Z,43.53
2023-02-11T05:55:51.004Z,39.28
2023-02-11T05:58:18.025Z,37.35
2023-02-11T06:00:44.721Z,47.67
2023-02-11T06:03:11.432Z,44.17
2023-02-11T06:05:39.419Z,39.10
2023-02-11T06:08:06.272Z,37.13
2023-02-11T06:10:35.103Z,57.03
2023-02-11T06:13:02.189Z,31.85
2023-02-11T06:15:29.118Z,40.95
2023-02-11T06:17:56.261Z,49.95
2023-02-11T06:20:23.010Z,46.50
2023-02-11T06:22:49.724Z,39.78
2023-02-11T06:25:16.576Z,47.85
2023-02-11T06:27:43.424Z,39.28
2023-02-11T06:30:10.836Z,47.05
2023-02-11T06:32:45.872Z,40.83
2023-02-11T06:35:14.380Z,46.00
2023-02-11T06:37:42.110Z,45.33
2023-02-11T06:40:10.031Z,39.13
2023-02-11T06:42:38.918Z,53.72
2023-02-11T06:45:06.186Z,39.38
2023-02-11T06:47:33.361Z,46.47
2023-02-11T06:50:04.581Z,37.22
2023-02-11T06:52:31.483Z,32.40
2023-02-11T06:54:58.168Z,44.75
2023-02-11T06:57:25.101Z,46.53
2023-02-11T06:59:52.012Z,40.80
2023-02-11T07:02:20.864Z,37.42
2023-02-11T07:04:47.983Z,46.28
2023-02-11T07:07:14.815Z,44.78
2023-02-11T07:09:41.813Z,44.38
2023-02-11T07:12:11.232Z,44.85
2023-02-11T07:14:38.019Z,53.47
2023-02-11T07:17:05.058Z,50.75
2023-02-11T07:19:31.888Z,40.92
2023-02-11T07:21:58.641Z,49.88
2023-02-11T07:24:25.457Z,49.17
2023-02-11T07:26:54.101Z,38.42
2023-02-11T07:29:21.153Z,50.35
2023-02-11T07:31:48.230Z,45.90
2023-02-11T07:34:18.394Z,43.70
2023-02-11T07:36:45.234Z,40.28
2023-02-11T07:39:12.020Z,58.08
2023-02-11T07:41:38.758Z,52.55
2023-02-11T07:44:05.784Z,44.22
2023-02-11T07:46:32.946Z,52.47
2023-02-11T07:49:00.059Z,46.13
2023-02-11T07:51:31.552Z,51.17
2023-02-11T07:53:59.771Z,50.10
2023-02-11T07:56:27.634Z,50.95
2023-02-11T07:58:56.687Z,39.97
2023-02-11T08:01:28.187Z,46.92
2023-02-11T08:03:56.810Z,47.40
2023-02-11T08:06:25.648Z,57.63
2023-02-11T08:08:52.874Z,46.25
2023-02-11T08:11:25.255Z,46.70
2023-02-11T08:13:52.875Z,49.63
2023-02-11T08:16:47.380Z,53.88
2023-02-11T08:19:16.175Z,53.78
2023-02-11T08:21:43.769Z,45.17
2023-02-11T08:24:16.422Z,50.30
2023-02-11T08:26:43.453Z,59.90
2023-02-11T08:29:13.700Z,56.70
2023-02-11T08:31:43.147Z,39.33
2023-02-11T08:34:11.541Z,45.22
2023-02-11T08:36:39.551Z,59.78
2023-02-11T08:39:18.690Z,41.10
2023-02-11T08:41:51.842Z,39.28
2023-02-11T08:44:20.049Z,50.03
2023-02-11T08:46:47.814Z,53.00
2023-02-11T08:49:15.279Z,60.70
2023-02-11T08:51:42.640Z,47.50
2023-02-11T08:54:09.885Z,49.25
2023-02-11T08:56:37.962Z,50.88
2023-02-11T08:59:05.339Z,50.88
2023-02-11T09:01:33.076Z,47.90
2023-02-11T09:04:01.042Z,55.58
2023-02-11T09:06:28.154Z,54.10
2023-02-11T09:08:56.669Z,60.20
2023-02-11T09:11:30.922Z,47.67
2023-02-11T09:13:57.837Z,48.67
2023-02-11T09:16:28.077Z,45.88
2023-02-11T09:18:57.584Z,53.55
2023-02-11T09:21:25.458Z,43.33
2023-02-11T09:23:52.394Z,50.38
2023-02-11T09:26:25.426Z,49.60
2023-02-11T09:28:52.612Z,47.42
2023-02-11T09:31:22.688Z,41.50
2023-02-11T09:33:52.925Z,43.58
2023-02-11T09:36:22.757Z,50.45
2023-02-11T09:38:49.975Z,47.47
2023-02-11T09:41:32.885Z,50.22
2023-02-11T09:46:41.804Z,40.78
2023-02-11T09:49:18.450Z,39.03
2023-02-11T09:51:53.439Z,41.45
2023-02-11T09:54:36.331Z,40.90
2023-02-11T09:59:30.124Z,39.10
2023-02-11T10:02:07.717Z,42.80
2023-02-11T10:04:47.498Z,43.75
2023-02-11T10:07:43.089Z,41.42
2023-02-11T10:10:32.644Z,41.53
2023-02-11T10:13:32.372Z,33.30
2023-02-11T10:16:20.759Z,38.78
2023-02-11T10:19:26.218Z,46.53
2023-02-11T10:22:22.135Z,37.38
2023-02-11T10:25:00.352Z,35.38
2023-02-11T10:27:33.401Z,36.00
2023-02-11T10:30:06.239Z,40.97
2023-02-11T10:33:03.805Z,32.28
2023-02-11T10:35:31.535Z,34.10
2023-02-11T10:37:59.677Z,28.90
2023-02-11T10:40:30.878Z,25.98
2023-02-11T10:43:00.614Z,31.20
2023-02-11T10:45:35.919Z,31.08
2023-02-11T10:48:40.374Z,25.50
2023-02-11T10:51:28.379Z,27.05
2023-02-11T10:54:04.266Z,27.67
2023-02-11T10:56:40.844Z,23.52
2023-02-11T10:59:19.714Z,26.27
2023-02-11T11:02:02.157Z,19.02
2023-02-11T11:04:34.930Z,24.33
2023-02-11T11:07:22.553Z,25.00
2023-02-11T11:10:03.718Z,20.70
2023-02-11T11:12:44.591Z,18.92
2023-02-11T11:15:11.299Z,23.17
2023-02-11T11:17:38.443Z,21.75
2023-02-11T11:20:27.478Z,18.60
2023-02-11T11:23:22.650Z,19.02
2023-02-11T11:26:04.578Z,18.80
2023-02-11T11:28:38.684Z,19.70
2023-02-11T11:31:11.999Z,23.00
2023-02-11T11:33:44.203Z,19.42
2023-02-11T11:36:14.446Z,20.13
2023-02-11T11:38:50.208Z,20.52
2023-02-11T11:41:28.344Z,16.73
2023-02-11T11:43:57.309Z,17.25
2023-02-11T11:46:32.278Z,18.60
2023-02-11T11:49:17.741Z,18.35
2023-02-11T11:51:54.999Z,20.27
2023-02-11T11:54:24.899Z,17.38
2023-02-11T11:56:59.775Z,20.85
2023-02-11T11:59:28.136Z,14.18
2023-02-11T12:02:10.198Z,15.05
2023-02-11T12:05:02.065Z,18.75
2023-02-11T12:07:49.402Z,15.40
2023-02-11T12:10:19.105Z,15.20
2023-02-11T12:12:59.746Z,16.60
2023-02-11T12:15:54.013Z,16.05
2023-02-11T12:18:38.688Z,12.15
2023-02-11T12:21:20.253Z,11.27
2023-02-11T12:24:24.669Z,13.65
2023-02-11T12:27:02.213Z,12.18
2023-02-11T12:29:43.250Z,13.27
2023-02-11T12:32:32.017Z,16.05
2023-02-11T12:35:06.742Z,17.70
2023-02-11T12:37:50.283Z,10.68
2023-02-11T12:40:51.364Z,15.93
2023-02-11T12:43:21.156Z,15.18
2023-02-11T12:46:12.975Z,12.55
2023-02-11T12:49:13.084Z,11.45
2023-02-11T12:51:48.792Z,10.02
2023-02-11T12:54:38.340Z,9.43
2023-02-11T12:57:19.801Z,14.13
2023-02-11T13:00:17.254Z,6.30
2023-02-11T13:03:10.906Z,11.00
2023-02-11T13:05:43.146Z,7.60
2023-02-11T13:08:18.962Z,12.80
2023-02-11T13:11:20.236Z,13.32
2023-02-11T13:13:57.657Z,9.52
2023-02-11T13:16:27.474Z,10.95
2023-02-11T13:19:30.967Z,9.63
2023-02-11T13:22:01.520Z,8.23
2023-02-11T13:24:31.101Z,14.43
2023-02-11T13:27:17.001Z,10.35
2023-02-11T13:29:43.897Z,8.70
2023-02-11T13:32:14.989Z,7.88
2023-02-11T13:34:44.508Z,7.82
2023-02-11T13:37:36.268Z,8.65
2023-02-11T13:40:19.169Z,8.50
2023-02-11T13:43:18.902Z,9.02
2023-02-11T13:45:48.081Z,11.35
2023-02-11T13:48:30.684Z,8.73
2023-02-11T13:51:13.164Z,9.18
2023-02-11T13:53:52.685Z,11.63
2023-02-11T13:56:40.598Z,9.27
2023-02-11T13:59:33.358Z,11.98
2023-02-11T14:02:18.684Z,12.98
2023-02-11T14:05:22.273Z,12.77
2023-02-11T14:08:26.269Z,7.47
2023-02-11T14:11:20.245Z,8.90
2023-02-11T14:13:52.431Z,10.13
2023-02-11T14:16:36.414Z,7.88
2023-02-11T14:19:04.076Z,9.02
2023-02-11T14:21:36.340Z,11.43
2023-02-11T14:24:04.767Z,9.68
2023-02-11T14:26:56.660Z,10.02
2023-02-11T14:29:38.305Z,11.00
2023-02-11T14:32:24.684Z,12.25
2023-02-11T14:35:26.894Z,10.05
2023-02-11T14:38:00.696Z,11.13
2023-02-11T14:41:16.938Z,10.18
2023-02-11T14:44:11.086Z,9.95
2023-02-11T14:46:37.917Z,11.15
2023-02-11T14:49:05.826Z,10.70
2023-02-11T14:51:38.377Z,16.33
2023-02-11T14:57:15.222Z,15.95
2023-02-11T15:00:00.128Z,12.35
2023-02-11T15:02:34.768Z,15.90
2023-02-11T15:05:37.100Z,8.93
2023-02-11T15:08:07.369Z,9.23
2023-02-11T15:10:41.111Z,8.63
2023-02-11T15:13:09.049Z,11.93
2023-02-11T15:15:40.753Z,6.80
2023-02-11T15:18:16.906Z,13.90
2023-02-11T15:20:43.656Z,9.77
2023-02-11T15:23:24.620Z,8.48
2023-02-11T15:25:55.570Z,11.02
2023-02-11T15:28:29.644Z,14.70
2023-02-11T15:31:17.219Z,12.40
2023-02-11T15:33:44.107Z,9.40
2023-02-11T15:36:12.731Z,10.70
2023-02-11T15:38:40.750Z,7.93
2023-02-11T15:41:08.086Z,9.80
2023-02-11T15:43:46.924Z,11.85
2023-02-11T15:46:22.911Z,13.20
2023-02-11T15:48:52.348Z,11.25
2023-02-11T15:51:37.469Z,14.07
2023-02-11T15:54:15.175Z,12.88
2023-02-11T15:56:47.949Z,13.52
2023-02-11T15:59:30.511Z,13.80
2023-02-11T16:02:05.340Z,13.90
2023-02-11T16:04:32.238Z,20.08
2023-02-11T16:07:02.207Z,19.25
2023-02-11T16:09:36.156Z,23.65
2023-02-11T16:12:22.103Z,31.98
2023-02-11T16:14:48.815Z,27.05
2023-02-11T16:17:18.378Z,29.85
2023-02-11T16:19:50.715Z,14.45
2023-02-11T16:22:22.583Z,14.68
2023-02-11T16:24:52.324Z,12.13
2023-02-11T16:27:42.211Z,14.98
2023-02-11T16:30:23.978Z,31.02
2023-02-11T16:32:53.150Z,31.48
2023-02-11T16:35:20.327Z,36.55
2023-02-11T16:37:49.793Z,54.88
2023-02-11T16:40:17.732Z,20.88
2023-02-11T16:42:47.343Z,20.95
2023-02-11T16:45:15.370Z,16.20
2023-02-11T16:47:43.617Z,17.02
2023-02-11T16:50:18.837Z,15.85
2023-02-11T16:52:46.288Z,12.68
2023-02-11T16:55:13.303Z,15.48
2023-02-11T16:57:39.953Z,11.50
2023-02-11T17:00:07.762Z,11.43
2023-02-11T17:02:36.747Z,8.95
2023-02-11T17:05:07.276Z,14.00
2023-02-11T17:07:36.183Z,11.00
2023-02-11T17:10:03.087Z,14.30
2023-02-11T17:12:29.822Z,15.10
2023-02-11T17:14:56.608Z,15.80
2023-02-11T17:17:23.687Z,16.98
2023-02-11T17:19:51.201Z,16.27
2023-02-11T17:22:18.703Z,14.25
2023-02-11T17:24:45.617Z,15.75
2023-02-11T17:27:15.174Z,20.10
2023-02-11T17:29:41.854Z,13.32
2023-02-11T17:32:08.816Z,14.80
2023-02-11T17:34:35.643Z,17.42
2023-02-11T17:37:09.070Z,15.57
2023-02-11T17:39:39.927Z,13.40
2023-02-11T17:42:07.289Z,20.48
2023-02-11T17:44:37.538Z,15.68
2023-02-11T17:47:04.429Z,14.15
2023-02-11T17:49:31.257Z,14.38
2023-02-11T17:51:58.437Z,16.48
2023-02-11T17:54:25.460Z,16.38
2023-02-11T17:56:55.143Z,17.27
2023-02-11T17:59:25.132Z,18.08
2023-02-11T18:01:51.866Z,17.27
2023-02-11T18:04:19.918Z,15.73
2023-02-11T18:06:47.317Z,16.60
2023-02-11T18:09:14.226Z,14.02
2023-02-11T18:11:41.109Z,14.07
2023-02-11T18:14:11.056Z,15.90
2023-02-11T18:16:39.679Z,18.85
2023-02-11T18:19:07.576Z,15.27
2023-02-11T18:21:35.420Z,13.63
2023-02-11T18:24:06.571Z,17.77
2023-02-11T18:26:33.947Z,20.60
2023-02-11T18:29:00.698Z,17.85
2023-02-11T18:31:28.049Z,14.15
2023-02-11T18:33:54.876Z,13.13
2023-02-11T18:36:22.500Z,11.45
2023-02-11T18:38:49.266Z,14.10
2023-02-11T18:41:16.189Z,15.13
2023-02-11T18:43:43.074Z,13.25
2023-02-11T18:46:12.560Z,17.08
2023-02-11T18:48:40.458Z,14.23
2023-02-11T18:51:12.648Z,21.52
2023-02-11T18:53:39.486Z,18.10
2023-02-11T18:56:08.741Z,20.13
2023-02-11T18:58:37.526Z,18.98
2023-02-11T19:01:11.472Z,24.67
2023-02-11T19:03:41.040Z,38.58
2023-02-11T19:06:12.890Z,25.85
2023-02-11T19:08:39.642Z,22.15
2023-02-11T19:11:06.361Z,19.33
2023-02-11T19:13:33.057Z,13.30
2023-02-11T19:15:59.748Z,15.75
2023-02-11T19:18:26.647Z,19.55
2023-02-11T19:20:53.486Z,15.82
2023-02-11T19:23:20.265Z,16.48
2023-02-11T19:25:47.875Z,19.13
2023-02-11T19:28:15.527Z,13.60
2023-02-11T19:30:43.621Z,12.13
2023-02-11T19:33:10.916Z,11.85
2023-02-11T19:35:37.676Z,12.77
2023-02-11T19:38:05.372Z,13.25
2023-02-11T19:40:32.656Z,14.43
2023-02-11T19:42:59.430Z,16.58
2023-02-11T19:45:27.079Z,15.10
2023-02-11T19:47:57.595Z,15.32
2023-02-11T19:50:24.791Z,13.57
2023-02-11T19:52:57.215Z,17.70
2023-02-11T19:55:24.102Z,12.90
2023-02-11T19:57:51.034Z,13.85
2023-02-11T20:00:21.173Z,13.05
2023-02-11T20:02:47.949Z,15.40
2023-02-11T20:05:15.081Z,15.30
2023-02-11T20:07:44.890Z,13.13
2023-02-11T20:10:13.512Z,13.95
2023-02-11T20:12:40.358Z,14.27
2023-02-11T20:15:08.795Z,19.45
2023-02-11T20:17:35.621Z,14.00
2023-02-11T20:20:02.509Z,16.58
2023-02-11T20:22:29.451Z,14.52
2023-02-11T20:24:56.623Z,15.32
2023-02-11T20:27:24.377Z,19.20
2023-02-11T20:29:51.927Z,15.95
2023-02-11T20:32:20.073Z,18.13
2023-02-11T20:34:47.195Z,16.52
2023-02-11T20:37:13.976Z,17.77
2023-02-11T20:39:41.997Z,19.15
2023-02-11T20:42:11.609Z,18.70
2023-02-11T20:44:39.077Z,18.33
2023-02-11T20:47:05.828Z,18.83
2023-02-11T20:49:35.351Z,18.20
2023-02-11T20:52:02.058Z,19.85
2023-02-11T20:54:28.741Z,19.65
2023-02-11T20:56:56.734Z,21.85
2023-02-11T20:59:24.001Z,18.35
2023-02-11T21:01:54.035Z,18.17
2023-02-11T21:04:29.868Z,24.55
2023-02-11T21:06:59.520Z,18.83
2023-02-11T21:09:29.038Z,19.88
2023-02-11T21:11:55.953Z,19.40
2023-02-11T21:14:24.576Z,19.67
2023-02-11T21:16:52.378Z,22.95
2023-02-11T21:19:20.171Z,17.75
2023-02-11T21:21:47.277Z,18.58
2023-02-11T21:24:14.340Z,18.83
2023-02-11T21:26:41.125Z,19.95
2023-02-11T21:29:08.325Z,16.60
2023-02-11T21:31:36.069Z,16.25
2023-02-11T21:34:03.053Z,18.98
2023-02-11T21:36:30.631Z,16.55
2023-02-11T21:38:57.431Z,19.77
2023-02-11T21:41:24.781Z,21.13
2023-02-11T21:43:52.178Z,21.15
2023-02-11T21:46:19.600Z,18.17
2023-02-11T21:48:46.857Z,19.75
2023-02-11T21:51:19.237Z,18.83
2023-02-11T21:53:46.356Z,17.98
2023-02-11T21:56:16.678Z,16.63
2023-02-11T21:58:44.077Z,20.27
2023-02-11T22:01:20.189Z,16.95
2023-02-11T22:03:47.673Z,20.80
2023-02-11T22:06:23.225Z,20.13
2023-02-11T22:08:50.470Z,18.75
2023-02-11T22:11:17.775Z,17.80
2023-02-11T22:13:45.088Z,20.08
2023-02-11T22:16:14.813Z,19.45
2023-02-11T22:18:42.749Z,19.95
2023-02-11T22:21:12.216Z,25.13
2023-02-11T22:23:45.389Z,18.65
2023-02-11T22:26:14.658Z,20.67
2023-02-11T22:28:41.524Z,21.55
2023-02-11T22:31:25.625Z,21.52
2023-02-11T22:33:52.594Z,17.17
2023-02-11T22:36:34.466Z,21.73
2023-02-11T22:39:07.031Z,22.17
2023-02-11T22:44:00.720Z,21.17
2023-02-11T22:46:27.603Z,17.67
2023-02-11T22:48:54.953Z,18.67
2023-02-11T22:51:24.590Z,20.77
2023-02-11T22:53:56.402Z,22.73
2023-02-11T22:56:24.078Z,16.92
2023-02-11T22:58:51.972Z,18.80
2023-02-11T23:01:19.500Z,21.50
2023-02-11T23:03:46.248Z,20.77
2023-02-11T23:06:12.965Z,23.38
2023-02-11T23:08:42.889Z,20.17
2023-02-11T23:11:11.191Z,21.15
2023-02-11T23:13:40.089Z,19.70
2023-02-11T23:16:10.540Z,21.92
2023-02-11T23:18:39.121Z,24.30
2023-02-11T23:21:12.378Z,22.20
2023-02-11T23:23:39.603Z,19.80
2023-02-11T23:26:10.517Z,23.23
2023-02-11T23:28:37.275Z,21.45
2023-02-11T23:31:18.362Z,19.77
2023-02-11T23:33:45.939Z,22.02
2023-02-11T23:36:13.035Z,22.00
2023-02-11T23:38:39.837Z,18.60
2023-02-11T23:41:06.572Z,19.92
2023-02-11T23:43:33.286Z,21.67
2023-02-11T23:46:04.049Z,28.27
2023-02-11T23:48:31.383Z,26.58
2023-02-11T23:50:58.022Z,21.33
2023-02-11T23:53:24.752Z,26.98
2023-02-11T23:55:51.519Z,23.65
2023-02-11T23:58:18.176Z,24.00
